Time;durP1;ratioP1;P1;durP2;ratioP2;P2;SDS_P1;SDS_P2;PMS_P1;PMS_P2;Temp;Humidity;BMP_temperature;BMP_pressure;BME280_temperature;BME280_humidity;BME280_pressure;Samples;Min_cycle;Max_cycle;Signal;HPM_P1;HPM_P2
2023/09/24 00:02:10;;;;;;;10.25;7.55;;;;;;;9.74;100.00;102204.66;5029467;28;20929;-84
2023/09/24 00:04:35;;;;;;;11.02;7.47;;;;;;;9.70;100.00;102210.97;5031388;28;20029;-85
2023/09/24 00:07:01;;;;;;;13.23;8.48;;;;;;;9.67;100.00;102214.59;5029754;28;20944;-83
2023/09/24 00:09:27;;;;;;;12.30;7.95;;;;;;;9.67;100.00;102224.28;5029678;28;20034;-82
2023/09/24 00:11:52;;;;;;;12.05;8.07;;;;;;;9.69;100.00;102223.25;5028076;28;20044;-82
2023/09/24 00:14:18;;;;;;;12.15;8.18;;;;;;;9.68;100.00;102215.47;5029526;28;20075;-83
2023/09/24 00:16:43;;;;;;;13.57;8.40;;;;;;;9.65;100.00;102228.75;5029883;28;20029;-83
2023/09/24 00:19:09;;;;;;;10.90;8.05;;;;;;;9.64;100.00;102227.03;5028500;28;20026;-83
2023/09/24 00:21:34;;;;;;;13.23;8.80;;;;;;;9.66;100.00;102230.44;5024124;28;20064;-83
2023/09/24 00:24:00;;;;;;;12.60;8.80;;;;;;;9.65;100.00;102237.47;5014751;28;20055;-83
2023/09/24 00:26:25;;;;;;;14.38;9.25;;;;;;;9.67;100.00;102234.78;5028023;28;20025;-82
2023/09/24 00:28:51;;;;;;;15.35;9.75;;;;;;;9.68;100.00;102231.22;5028113;28;20017;-83
2023/09/24 00:31:17;;;;;;;12.95;9.77;;;;;;;9.67;100.00;102234.78;5028902;28;20045;-83
2023/09/24 00:33:42;;;;;;;12.02;9.70;;;;;;;9.70;100.00;102239.88;5029083;28;20032;-83
2023/09/24 00:36:08;;;;;;;15.13;9.75;;;;;;;9.69;100.00;102243.44;5028542;28;20036;-83
2023/09/24 00:38:33;;;;;;;15.20;10.10;;;;;;;9.63;100.00;102238.47;5041443;28;20039;-83
2023/09/24 00:40:59;;;;;;;13.13;9.65;;;;;;;9.58;100.00;102250.97;5027408;28;20123;-83
2023/09/24 00:43:32;;;;;;;12.98;10.10;;;;;;;9.61;100.00;102256.09;5027922;28;20037;-83
2023/09/24 00:46:00;;;;;;;15.57;10.18;;;;;;;9.57;100.00;102254.50;5043222;28;20037;-83
2023/09/24 00:48:29;;;;;;;13.68;10.20;;;;;;;9.58;100.00;102257.06;5027678;28;20059;-83
2023/09/24 00:50:59;;;;;;;13.90;9.85;;;;;;;9.61;100.00;102250.84;5024758;28;20436;-84
2023/09/24 00:53:27;;;;;;;14.75;10.52;;;;;;;9.54;100.00;102259.91;5029361;28;20453;-82
2023/09/24 00:55:54;;;;;;;15.45;10.30;;;;;;;9.57;100.00;102257.13;5026410;28;20049;-82
2023/09/24 00:58:21;;;;;;;13.73;10.73;;;;;;;9.53;100.00;102253.81;5029892;28;20027;-82
2023/09/24 01:00:46;;;;;;;15.07;10.85;;;;;;;9.55;100.00;102259.00;5028953;28;20071;-83
2023/09/24 01:03:14;;;;;;;16.80;11.05;;;;;;;9.51;100.00;102257.44;5030409;28;20021;-83
2023/09/24 01:05:40;;;;;;;14.48;11.40;;;;;;;9.49;100.00;102249.63;5027723;28;20036;-83
2023/09/24 01:08:06;;;;;;;14.35;10.18;;;;;;;9.48;100.00;102241.81;5013486;28;20053;-84
2023/09/24 01:10:32;;;;;;;12.38;11.07;;;;;;;9.44;100.00;102241.09;5019505;28;20029;-83
2023/09/24 01:13:00;;;;;;;13.50;11.00;;;;;;;9.47;100.00;102245.38;5030279;28;20441;-83
2023/09/24 01:15:27;;;;;;;15.95;10.85;;;;;;;9.41;100.00;102244.72;5029613;28;20070;-82
2023/09/24 01:17:53;;;;;;;13.60;10.82;;;;;;;9.36;100.00;102249.34;5030714;28;20021;-83
2023/09/24 01:20:24;;;;;;;16.95;10.95;;;;;;;9.40;100.00;102252.69;5030365;28;20470;-84
2023/09/24 01:22:50;;;;;;;17.23;11.02;;;;;;;9.42;100.00;102251.69;5029458;28;20013;-84
2023/09/24 01:25:18;;;;;;;14.18;10.60;;;;;;;9.38;100.00;102252.75;5016438;28;20039;-84
2023/09/24 01:27:47;;;;;;;12.85;11.00;;;;;;;9.37;100.00;102251.06;5024763;28;20069;-84
2023/09/24 01:30:13;;;;;;;12.68;10.68;;;;;;;9.37;100.00;102251.06;5028233;28;20028;-84
2023/09/24 01:32:40;;;;;;;12.30;10.90;;;;;;;9.34;100.00;102266.09;5029750;28;20021;-84
2023/09/24 01:35:06;;;;;;;14.82;11.63;;;;;;;9.27;100.00;102262.91;5029623;28;20080;-84
2023/09/24 01:37:34;;;;;;;15.07;10.80;;;;;;;9.28;100.00;102259.38;5027797;28;20037;-84
2023/09/24 01:40:24;;;;;;;12.02;10.85;;;;;;;9.30;100.00;102257.53;5026767;28;20018;-84
2023/09/24 01:42:52;;;;;;;14.05;11.40;;;;;;;9.28;100.00;102248.00;5027590;28;20033;-84
2023/09/24 01:45:17;;;;;;;13.90;10.90;;;;;;;9.27;100.00;102241.06;5028333;28;20033;-83
2023/09/24 01:47:49;;;;;;;14.35;10.98;;;;;;;9.26;100.00;102244.59;5028486;28;20102;-83
2023/09/24 01:50:16;;;;;;;12.43;11.13;;;;;;;9.25;100.00;102248.16;5026541;28;20044;-84
2023/09/24 01:52:42;;;;;;;18.98;10.55;;;;;;;9.21;100.00;102257.94;5027364;28;20100;-83
2023/09/24 01:55:07;;;;;;;15.52;11.23;;;;;;;9.23;100.00;102248.22;5029009;28;20117;-84
2023/09/24 01:57:33;;;;;;;13.60;11.70;;;;;;;9.22;100.00;102238.63;5025429;28;21525;-83
2023/09/24 02:00:11;;;;;;;15.07;11.23;;;;;;;9.17;100.00;102245.84;5027822;28;20051;-84
2023/09/24 02:02:38;;;;;;;12.55;10.80;;;;;;;9.15;100.00;102249.47;5046556;28;20028;-84
2023/09/24 02:05:06;;;;;;;13.18;11.15;;;;;;;9.18;100.00;102252.81;5033414;28;20033;-83
2023/09/24 02:07:31;;;;;;;13.25;10.77;;;;;;;9.16;100.00;102249.41;5033192;28;20072;-83
2023/09/24 02:09:57;;;;;;;13.32;10.27;;;;;;;9.06;100.00;102246.34;5031130;28;20033;-84
2023/09/24 02:12:22;;;;;;;12.07;10.65;;;;;;;9.10;100.00;102252.31;5031599;28;20029;-82
2023/09/24 02:14:48;;;;;;;13.35;10.90;;;;;;;9.04;100.00;102252.59;5034475;28;20021;-82
2023/09/24 02:17:13;;;;;;;14.18;11.23;;;;;;;9.05;100.00;102254.28;5036849;28;20037;-82
2023/09/24 02:19:38;;;;;;;13.90;11.57;;;;;;;9.09;100.00;102258.47;5036260;28;20025;-82
2023/09/24 02:22:04;;;;;;;12.60;11.27;;;;;;;9.01;100.00;102258.84;5036581;28;20176;-83
2023/09/24 02:24:29;;;;;;;12.93;10.52;;;;;;;9.02;100.00;102262.31;5053797;28;20063;-82
2023/09/24 02:26:55;;;;;;;13.68;10.60;;;;;;;9.00;100.00;102269.41;5036673;28;20032;-82
2023/09/24 02:29:20;;;;;;;11.57;10.40;;;;;;;9.01;100.00;102279.84;5037592;28;20029;-83
2023/09/24 02:31:45;;;;;;;14.13;11.00;;;;;;;8.97;100.00;102280.03;5035484;28;20029;-82
2023/09/24 02:34:11;;;;;;;13.52;10.73;;;;;;;8.96;100.00;102273.09;5033260;28;20021;-81
2023/09/24 02:36:37;;;;;;;15.85;11.18;;;;;;;8.96;100.00;102273.94;5036175;28;20037;-82
2023/09/24 02:39:02;;;;;;;16.42;10.93;;;;;;;8.97;100.00;102270.38;5037200;28;20053;-82
2023/09/24 02:41:29;;;;;;;14.00;11.00;;;;;;;8.97;100.00;102269.53;5035014;28;20096;-82
2023/09/24 02:43:54;;;;;;;11.85;10.43;;;;;;;8.96;100.00;102273.94;5035873;28;20367;-82
2023/09/24 02:46:20;;;;;;;14.35;11.10;;;;;;;8.95;100.00;102269.59;5035030;28;20040;-82
2023/09/24 02:48:45;;;;;;;13.00;10.25;;;;;;;8.86;100.00;102275.28;5035638;28;20033;-83
2023/09/24 02:51:11;;;;;;;14.55;10.50;;;;;;;8.93;100.00;102284.56;5033943;28;20600;-83
2023/09/24 02:53:37;;;;;;;14.80;10.70;;;;;;;8.87;100.00;102273.50;5050139;28;20029;-83
2023/09/24 02:56:04;;;;;;;11.30;10.20;;;;;;;8.83;100.00;102272.78;5037307;28;20025;-82
2023/09/24 02:58:30;;;;;;;14.65;10.45;;;;;;;8.86;100.00;102277.03;5038394;28;20045;-84
2023/09/24 03:00:56;;;;;;;12.68;10.20;;;;;;;8.84;100.00;102268.38;5036598;28;20025;-82
2023/09/24 03:03:22;;;;;;;15.05;10.55;;;;;;;8.84;100.00;102271.84;5026838;28;20033;-83
2023/09/24 03:05:48;;;;;;;13.45;9.70;;;;;;;8.83;100.00;102272.78;5021219;28;20524;-83
2023/09/24 03:08:15;;;;;;;18.60;10.43;;;;;;;8.83;100.00;102272.78;5017246;28;20030;-83
2023/09/24 03:10:46;;;;;;;13.40;10.18;;;;;;;8.84;100.00;102277.09;5036721;28;20485;-82
2023/09/24 03:13:12;;;;;;;10.95;9.68;;;;;;;8.81;100.00;102274.63;5037803;28;20036;-83
2023/09/24 03:15:37;;;;;;;12.88;9.77;;;;;;;8.78;100.00;102279.97;5037943;28;20033;-82
2023/09/24 03:18:03;;;;;;;12.88;9.52;;;;;;;8.79;100.00;102282.53;5038862;28;20025;-83
2023/09/24 03:20:29;;;;;;;12.48;10.15;;;;;;;8.79;100.00;102281.69;5038589;28;20028;-83
2023/09/24 03:23:03;;;;;;;14.30;9.68;;;;;;;8.71;100.00;102289.03;5030497;28;20030;-83
2023/09/24 03:25:28;;;;;;;11.88;10.15;;;;;;;8.74;100.00;102286.28;5014786;28;20029;-83
2023/09/24 03:28:00;;;;;;;14.35;9.60;;;;;;;8.69;100.00;102296.97;5033193;28;20067;-83
2023/09/24 03:30:26;;;;;;;11.47;9.90;;;;;;;8.69;100.00;102291.72;5028838;28;20028;-83
2023/09/24 03:32:52;;;;;;;10.90;8.75;;;;;;;8.57;100.00;102292.25;5028534;28;20033;-83
2023/09/24 03:35:23;;;;;;;10.10;9.10;;;;;;;8.62;100.00;102292.06;5031743;28;20077;-83
2023/09/24 03:37:50;;;;;;;11.60;9.57;;;;;;;8.68;100.00;102303.13;5028216;28;20549;-83
2023/09/24 03:40:18;;;;;;;10.70;9.43;;;;;;;8.60;100.00;102307.00;5034476;28;20037;-82
2023/09/24 03:42:44;;;;;;;11.55;9.38;;;;;;;8.54;100.00;102305.50;5030366;28;20029;-83
2023/09/24 03:45:12;;;;;;;12.15;9.50;;;;;;;8.49;100.00;102310.09;5029299;28;20116;-84
2023/09/24 03:47:39;;;;;;;11.43;9.15;;;;;;;8.55;100.00;102304.59;5029885;28;20055;-83
2023/09/24 03:50:13;;;;;;;11.00;9.60;;;;;;;8.51;100.00;102307.41;5030001;28;20025;-83
2023/09/24 03:52:56;;;;;;;13.07;9.60;;;;;;;8.54;100.00;102309.91;5030039;28;20490;-83
2023/09/24 03:55:22;;;;;;;11.60;8.93;;;;;;;8.52;100.00;102306.50;5026624;28;20025;-82
2023/09/24 03:57:48;;;;;;;13.18;9.38;;;;;;;8.52;100.00;102309.97;5028090;28;20144;-83
2023/09/24 04:00:21;;;;;;;11.07;8.65;;;;;;;8.49;100.00;102304.84;5030033;28;20096;-83
2023/09/24 04:02:48;;;;;;;13.32;8.57;;;;;;;8.49;100.00;102310.09;5030158;28;20044;-83
2023/09/24 04:05:18;;;;;;;11.85;8.63;;;;;;;8.47;100.00;102317.19;5028185;28;20021;-82
2023/09/24 04:07:49;;;;;;;12.73;8.38;;;;;;;8.47;100.00;102311.94;5027929;28;20032;-83
2023/09/24 04:10:15;;;;;;;14.38;9.10;;;;;;;8.44;100.00;102312.06;5029344;28;20040;-83
2023/09/24 04:12:46;;;;;;;14.68;8.40;;;;;;;8.48;100.00;102316.25;5025553;28;20478;-83
2023/09/24 04:15:12;;;;;;;11.88;8.85;;;;;;;8.43;100.00;102307.72;5022993;28;20032;-83
2023/09/24 04:17:39;;;;;;;11.70;8.63;;;;;;;8.44;100.00;102323.41;5025635;28;20578;-83
2023/09/24 04:20:15;;;;;;;9.40;7.68;;;;;;;8.42;100.00;102319.13;5026011;28;20449;-84
2023/09/24 04:22:44;;;;;;;13.75;8.73;;;;;;;8.42;100.00;102324.38;5028275;28;20078;-83
2023/09/24 04:25:14;;;;;;;9.57;8.25;;;;;;;8.39;100.00;102327.09;5028908;28;21015;-83
2023/09/24 04:27:43;;;;;;;13.68;8.70;;;;;;;8.39;100.00;102325.34;5028873;28;20128;-83
2023/09/24 04:30:19;;;;;;;16.88;9.20;;;;;;;8.39;100.00;102325.34;5016473;28;20025;-83
2023/09/24 04:32:49;;;;;;;9.38;8.40;;;;;;;8.39;100.00;102327.97;5026909;28;20516;-84
2023/09/24 04:35:19;;;;;;;10.52;7.78;;;;;;;8.33;100.00;102322.09;5029744;28;20037;-83
2023/09/24 04:37:48;;;;;;;9.32;7.82;;;;;;;8.38;100.00;102328.88;5030166;28;20017;-83
2023/09/24 04:40:14;;;;;;;11.45;7.85;;;;;;;8.30;100.00;102325.69;5028064;28;20489;-83
2023/09/24 04:42:47;;;;;;;12.50;8.50;;;;;;;8.34;100.00;102336.94;5028045;28;20025;-83
2023/09/24 04:45:13;;;;;;;;;;;;;;;8.43;100.00;102326.94;5029433;28;20030;-83
2023/09/24 04:47:45;;;;;;;13.02;8.20;;;;;;;8.30;100.00;102335.31;5027289;28;19979;-83
2023/09/24 04:50:12;;;;;;;13.43;8.20;;;;;;;8.24;100.00;102328.56;5028744;28;20052;-83
2023/09/24 04:52:39;;;;;;;14.55;8.48;;;;;;;8.26;100.00;102328.50;5028403;28;20024;-84
2023/09/24 04:55:05;;;;;;;12.32;7.80;;;;;;;8.28;100.00;102331.91;5028593;28;20043;-83
2023/09/24 04:57:30;;;;;;;12.68;8.48;;;;;;;8.26;100.00;102341.59;5042071;28;20032;-83
2023/09/24 04:59:56;;;;;;;15.20;8.02;;;;;;;8.27;100.00;102330.19;5009685;28;20029;-83
2023/09/24 05:02:23;;;;;;;11.10;8.20;;;;;;;8.26;100.00;102324.09;5016808;28;20021;-83
2023/09/24 05:04:52;;;;;;;8.73;7.15;;;;;;;8.24;100.00;102333.81;5014184;28;20113;-84
2023/09/24 05:07:17;;;;;;;8.82;7.40;;;;;;;8.23;100.00;102336.50;5008659;28;20041;-83
2023/09/24 05:09:43;;;;;;;11.82;7.07;;;;;;;8.25;100.00;102337.28;5028618;28;20358;-83
2023/09/24 05:12:10;;;;;;;11.73;7.50;;;;;;;8.24;100.00;102335.56;5029110;28;20392;-83
2023/09/24 05:14:35;;;;;;;12.60;7.40;;;;;;;8.15;100.00;102337.66;5028508;28;20079;-84
2023/09/24 05:17:01;;;;;;;10.32;6.97;;;;;;;8.22;100.00;102330.41;5026272;28;20457;-84
2023/09/24 05:19:26;;;;;;;9.95;7.60;;;;;;;8.17;100.00;102345.47;5026575;28;20064;-83
2023/09/24 05:21:51;;;;;;;12.38;7.47;;;;;;;8.17;100.00;102341.06;5010746;28;20061;-84
2023/09/24 05:24:17;;;;;;;10.23;7.20;;;;;;;8.17;100.00;102350.69;5022803;28;20104;-84
2023/09/24 05:26:43;;;;;;;12.40;7.00;;;;;;;8.13;100.00;102352.59;5029600;28;20029;-84
2023/09/24 05:29:09;;;;;;;10.63;7.10;;;;;;;8.15;100.00;102356.00;5027650;28;20389;-83
2023/09/24 05:31:35;;;;;;;9.25;7.22;;;;;;;8.16;100.00;102362.97;5028360;28;20120;-84
2023/09/24 05:34:03;;;;;;;11.00;7.15;;;;;;;8.15;100.00;102366.50;5044242;28;20485;-83
2023/09/24 05:36:28;;;;;;;9.73;6.75;;;;;;;8.15;100.00;102369.13;5026613;28;20558;-84
2023/09/24 05:38:54;;;;;;;10.75;7.55;;;;;;;8.14;100.00;102371.81;5018274;28;20024;-84
2023/09/24 05:41:19;;;;;;;9.68;6.65;;;;;;;8.10;100.00;102381.56;5030987;28;20612;-84
2023/09/24 05:43:47;;;;;;;11.52;6.85;;;;;;;8.09;100.00;102394.72;5031462;28;20038;-83
2023/09/24 05:46:12;;;;;;;7.63;6.65;;;;;;;8.14;100.00;102383.13;5033628;28;20082;-84
2023/09/24 05:48:38;;;;;;;10.45;6.85;;;;;;;8.12;100.00;102389.34;5032758;28;20489;-83
2023/09/24 05:51:04;;;;;;;10.63;7.10;;;;;;;8.12;100.00;102384.13;5047766;28;20068;-83
2023/09/24 05:53:30;;;;;;;12.23;7.10;;;;;;;8.13;100.00;102391.91;5032855;28;20653;-84
2023/09/24 05:55:55;;;;;;;11.07;7.00;;;;;;;8.20;100.00;102396.91;5027667;28;20543;-84
2023/09/24 05:58:21;;;;;;;15.15;7.40;;;;;;;8.14;100.00;102403.25;5014697;28;20025;-84
2023/09/24 06:00:47;;;;;;;9.90;7.15;;;;;;;8.17;100.00;102395.28;5029748;28;20038;-84
2023/09/24 06:03:14;;;;;;;9.20;6.70;;;;;;;8.12;100.00;102405.94;5031980;28;20056;-84
2023/09/24 06:05:40;;;;;;;10.43;7.18;;;;;;;8.17;100.00;102409.22;5032246;28;20033;-84
2023/09/24 06:08:06;;;;;;;12.70;7.35;;;;;;;8.19;100.00;102396.06;5031959;28;20440;-84
2023/09/24 06:10:34;;;;;;;9.85;6.95;;;;;;;8.25;100.00;102394.97;5031541;28;20025;-84
2023/09/24 06:13:00;;;;;;;10.20;7.72;;;;;;;8.29;100.00;102396.56;5031952;28;20040;-84
2023/09/24 06:15:25;;;;;;;10.43;7.25;;;;;;;8.28;100.00;102395.69;5032262;28;20025;-84
2023/09/24 06:17:51;;;;;;;11.68;7.38;;;;;;;8.30;100.00;102393.00;5030518;28;20021;-84
2023/09/24 06:20:17;;;;;;;11.27;7.05;;;;;;;8.38;100.00;102390.97;5030916;28;20041;-84
2023/09/24 06:22:52;;;;;;;12.60;7.18;;;;;;;8.39;100.00;102400.53;5030059;28;20060;-84
2023/09/24 06:25:18;;;;;;;10.07;7.07;;;;;;;8.40;100.00;102397.84;5028925;28;20026;-84
2023/09/24 06:27:43;;;;;;;13.57;7.13;;;;;;;8.46;100.00;102402.03;5032034;28;20060;-84
2023/09/24 06:30:09;;;;;;;12.65;7.00;;;;;;;8.48;100.00;102397.56;5030524;28;20027;-85
2023/09/24 06:32:35;;;;;;;11.70;7.15;;;;;;;8.54;100.00;102407.81;5029696;28;20083;-85
2023/09/24 06:35:01;;;;;;;10.57;6.78;;;;;;;8.57;100.00;102407.69;5030386;28;20029;-83
2023/09/24 06:37:26;;;;;;;12.57;7.28;;;;;;;8.58;100.00;102401.53;5031635;28;20032;-83
2023/09/24 06:39:52;;;;;;;11.55;6.78;;;;;;;8.62;100.00;102405.72;5020778;28;20080;-84
2023/09/24 06:42:17;;;;;;;9.57;6.80;;;;;;;8.68;100.00;102405.47;5032863;28;20025;-83
2023/09/24 06:44:43;;;;;;;10.38;6.78;;;;;;;8.75;100.00;102412.16;5032322;28;20025;-84
2023/09/24 06:47:09;;;;;;;15.07;7.15;;;;;;;8.76;100.00;102416.50;5030555;28;20032;-84
2023/09/24 06:49:34;;;;;;;12.30;6.90;;;;;;;8.83;100.00;102409.25;5031156;28;20042;-82
2023/09/24 06:51:59;;;;;;;14.10;6.70;;;;;;;8.91;100.00;102415.03;5030688;28;20076;-82
2023/09/24 06:54:25;;;;;;;13.35;6.78;;;;;;;8.94;100.00;102417.53;5031765;28;20055;-83
2023/09/24 06:56:51;;;;;;;10.38;6.85;;;;;;;9.02;100.00;102414.56;5028660;28;20079;-83
2023/09/24 06:59:16;;;;;;;14.32;7.05;;;;;;;9.09;100.00;102418.63;5031512;28;20490;-82
2023/09/24 07:01:42;;;;;;;12.68;6.32;;;;;;;9.20;100.00;102413.78;5045427;28;20044;-83
2023/09/24 07:04:08;;;;;;;11.07;6.07;;;;;;;9.29;100.00;102418.66;5031882;28;20044;-83
2023/09/24 07:06:33;;;;;;;10.70;6.50;;;;;;;9.40;100.00;102421.66;5031645;28;21047;-83
2023/09/24 07:09:00;;;;;;;10.63;6.18;;;;;;;9.54;100.00;102422.81;5030811;28;20100;-83
2023/09/24 07:11:34;;;;;;;10.55;6.40;;;;;;;9.69;100.00;102423.00;5031596;28;20120;-83
2023/09/24 07:14:01;;;;;;;12.63;5.95;;;;;;;9.83;100.00;102419.75;5032271;28;20370;-83
2023/09/24 07:16:27;;;;;;;10.52;6.30;;;;;;;10.02;100.00;102422.41;5030976;28;20606;-84
2023/09/24 07:18:54;;;;;;;11.13;5.60;;;;;;;10.15;100.00;102425.28;5029436;28;20440;-84
2023/09/24 07:21:21;;;;;;;11.50;5.80;;;;;;;10.34;100.00;102426.16;5030449;28;20493;-83
2023/09/24 07:23:48;;;;;;;9.68;5.57;;;;;;;10.42;100.00;102424.03;5031816;28;20053;-83
2023/09/24 07:26:14;;;;;;;12.93;5.40;;;;;;;10.56;100.00;102426.84;5031067;28;20033;-83
2023/09/24 07:28:39;;;;;;;11.40;5.35;;;;;;;10.71;100.00;102429.66;5035168;28;20021;-83
2023/09/24 07:31:19;;;;;;;12.00;5.38;;;;;;;10.85;100.00;102438.59;5032852;28;20025;-83
2023/09/24 07:33:46;;;;;;;12.45;5.00;;;;;;;11.03;100.00;102428.91;5029751;28;20549;-83
2023/09/24 07:36:12;;;;;;;11.75;5.50;;;;;;;11.19;100.00;102436.88;5030488;28;20520;-84
2023/09/24 07:38:39;;;;;;;9.85;5.38;;;;;;;11.33;100.00;102449.34;5029203;28;20040;-83
2023/09/24 07:41:07;;;;;;;11.70;4.78;;;;;;;11.47;100.00;102438.94;5029379;28;20116;-83
2023/09/24 07:43:33;;;;;;;7.78;5.00;;;;;;;11.61;100.00;102444.38;5029229;28;20059;-84
2023/09/24 07:45:58;;;;;;;10.75;5.10;;;;;;;11.72;100.00;102447.28;5031067;28;20108;-83
2023/09/24 07:48:24;;;;;;;9.40;4.97;;;;;;;11.88;100.00;102447.31;5025729;28;20044;-84
2023/09/24 07:50:54;;;;;;;8.88;4.80;;;;;;;12.00;100.00;102459.00;5030808;28;20025;-85
2023/09/24 07:53:22;;;;;;;8.25;4.15;;;;;;;12.08;100.00;102457.66;5031138;28;20018;-83
2023/09/24 07:56:02;;;;;;;10.40;4.85;;;;;;;12.27;100.00;102460.13;5030586;28;20025;-83
2023/09/24 07:58:30;;;;;;;10.38;4.43;;;;;;;12.44;100.00;102452.16;5039940;28;20133;-83
2023/09/24 08:01:10;;;;;;;9.68;4.97;;;;;;;12.62;100.00;102454.69;5032346;28;20509;-83
2023/09/24 08:03:36;;;;;;;11.30;4.70;;;;;;;12.75;100.00;102455.66;5040357;28;20064;-83
2023/09/24 08:06:04;;;;;;;7.97;4.80;;;;;;;12.94;100.00;102453.69;5025484;28;20037;-83
2023/09/24 08:08:30;;;;;;;9.40;4.43;;;;;;;13.02;100.00;102451.44;5030775;28;20117;-84
2023/09/24 08:10:56;;;;;;;9.88;4.90;;;;;;;13.09;100.00;102454.56;5029281;28;20021;-84
2023/09/24 08:13:22;;;;;;;10.27;5.00;;;;;;;13.25;100.00;102449.28;5029911;28;20505;-85
2023/09/24 08:15:49;;;;;;;8.02;3.97;;;;;;;13.34;100.00;102448.72;5029527;28;20026;-85
2023/09/24 08:18:18;;;;;;;12.13;4.68;;;;;;;13.47;100.00;102449.69;5029457;28;20040;-85
2023/09/24 08:20:48;;;;;;;9.63;4.50;;;;;;;13.62;100.00;102453.22;5029571;28;20044;-86
2023/09/24 08:23:18;;;;;;;9.45;3.92;;;;;;;13.73;100.00;102448.94;5030137;28;20021;-85
2023/09/24 08:25:44;;;;;;;7.70;4.07;;;;;;;13.90;100.00;102455.84;5027808;28;20032;-85
2023/09/24 08:28:10;;;;;;;8.35;4.22;;;;;;;14.02;100.00;102464.81;5030802;28;20041;-84
2023/09/24 08:30:35;;;;;;;9.25;3.55;;;;;;;14.18;99.38;102456.75;5028098;28;20045;-84
2023/09/24 08:33:01;;;;;;;8.90;3.28;;;;;;;14.27;98.80;102461.47;5028648;28;20514;-85
2023/09/24 08:35:27;;;;;;;5.50;2.95;;;;;;;14.41;97.15;102451.69;5029564;28;20330;-84
2023/09/24 08:37:52;;;;;;;8.07;3.20;;;;;;;14.57;99.37;102458.69;5028455;28;20014;-86
2023/09/24 08:40:18;;;;;;;9.13;2.67;;;;;;;14.68;97.85;102467.63;5028601;28;20018;-84
2023/09/24 08:42:48;;;;;;;5.28;2.42;;;;;;;14.84;96.74;102462.19;5029427;28;20436;-85
2023/09/24 08:45:19;;;;;;;7.22;2.63;;;;;;;15.02;94.51;102463.59;5029120;28;20033;-85
2023/09/24 08:47:46;;;;;;;8.38;2.70;;;;;;;15.24;95.29;102465.66;5029705;28;20053;-85
2023/09/24 08:50:13;;;;;;;6.20;2.47;;;;;;;15.45;93.30;102459.84;5028818;28;20548;-85
2023/09/24 08:52:40;;;;;;;6.05;2.47;;;;;;;15.58;92.96;102464.22;5027727;28;20501;-85
2023/09/24 08:55:09;;;;;;;7.45;2.40;;;;;;;15.63;91.65;102466.56;5028504;28;20112;-86
2023/09/24 08:57:36;;;;;;;5.38;2.22;;;;;;;15.80;88.80;102468.88;5051970;28;20075;-86
2023/09/24 09:00:04;;;;;;;5.60;2.30;;;;;;;15.80;89.14;102462.72;5027201;28;20616;-85
2023/09/24 09:02:30;;;;;;;3.33;1.92;;;;;;;16.00;88.53;102464.81;5019384;28;20562;-85
2023/09/24 09:04:56;;;;;;;5.38;2.20;;;;;;;16.14;88.67;102467.34;5028511;28;20112;-86
2023/09/24 09:07:21;;;;;;;5.50;1.95;;;;;;;16.35;88.10;102464.09;5028235;28;20102;-85
2023/09/24 09:09:56;;;;;;;6.30;2.38;;;;;;;16.51;88.06;102462.03;5029106;28;20102;-86
2023/09/24 09:12:23;;;;;;;5.93;1.55;;;;;;;16.58;83.93;102471.25;5029405;28;20029;-86
2023/09/24 09:14:49;;;;;;;3.13;1.75;;;;;;;16.67;84.72;102465.28;5027668;28;20031;-86
2023/09/24 09:17:14;;;;;;;7.07;2.33;;;;;;;16.81;82.38;102450.97;5034347;28;20139;-86
2023/09/24 09:19:56;;;;;;;4.40;1.70;;;;;;;16.91;87.26;102458.16;5032670;28;20029;-85
2023/09/24 09:22:23;;;;;;;3.40;1.50;;;;;;;16.99;82.50;102454.06;5035236;28;20509;-84
2023/09/24 09:25:04;;;;;;;3.58;1.60;;;;;;;17.22;83.27;102445.19;5035832;28;20029;-85
2023/09/24 09:27:42;;;;;;;5.55;1.50;;;;;;;17.49;83.90;102437.72;5035470;28;20042;-86
2023/09/24 09:30:28;;;;;;;4.35;1.50;;;;;;;17.85;85.68;102433.19;5038036;28;20037;-84
2023/09/24 09:32:53;;;;;;;3.03;1.58;;;;;;;18.09;76.62;102423.25;5035690;28;20132;-86
2023/09/24 09:35:19;;;;;;;4.95;1.73;;;;;;;18.36;76.26;102421.94;5034497;28;20604;-85
2023/09/24 09:37:46;;;;;;;3.55;1.60;;;;;;;18.92;71.03;102413.78;5036294;28;20021;-86
2023/09/24 09:40:12;;;;;;;3.83;1.63;;;;;;;19.77;67.88;102413.56;5036270;28;20060;-87
2023/09/24 09:42:37;;;;;;;4.20;1.40;;;;;;;20.82;61.23;102415.59;5035053;28;20075;-88
2023/09/24 09:45:10;;;;;;;4.90;1.58;;;;;;;21.75;59.57;102406.78;5034773;28;20442;-85
2023/09/24 09:47:58;;;;;;;2.88;1.27;;;;;;;22.78;62.37;102398.31;5036552;28;20382;-84
2023/09/24 09:50:26;;;;;;;3.50;1.60;;;;;;;23.86;50.74;102405.06;5022952;28;20033;-86
2023/09/24 09:52:54;;;;;;;3.80;1.30;;;;;;;24.84;48.84;102395.34;5037631;28;20033;-85
2023/09/24 09:55:20;;;;;;;3.28;1.15;;;;;;;25.59;44.69;102390.44;5034045;28;20167;-87
2023/09/24 09:57:46;;;;;;;3.75;1.17;;;;;;;26.28;42.89;102390.63;5035989;28;20028;-84
2023/09/24 10:00:14;;;;;;;4.07;1.60;;;;;;;26.33;41.30;102388.25;5041743;28;20055;-85
2023/09/24 10:02:42;;;;;;;2.53;1.40;;;;;;;26.87;41.19;102379.22;5055785;28;20524;-85
2023/09/24 10:05:10;;;;;;;3.90;1.48;;;;;;;26.81;41.45;102378.91;5056398;28;20033;-89
2023/09/24 10:07:40;;;;;;;4.13;1.55;;;;;;;27.08;39.68;102379.38;5056593;28;20025;-87
2023/09/24 10:10:32;;;;;;;3.65;1.58;;;;;;;27.24;42.43;102368.41;5051334;28;20366;-86
2023/09/24 10:12:59;;;;;;;2.58;1.40;;;;;;;26.43;40.01;102356.47;5011113;28;20038;-84
2023/09/24 10:15:28;;;;;;;3.08;1.38;;;;;;;26.31;39.78;102357.03;5016404;28;20110;-87
2023/09/24 10:18:09;;;;;;;3.17;1.23;;;;;;;25.80;43.95;102356.69;5015797;28;20101;-83
2023/09/24 10:20:50;;;;;;;3.85;1.30;;;;;;;24.76;45.49;102354.94;5016313;28;20061;-84
2023/09/24 10:23:44;;;;;;;3.28;1.35;;;;;;;23.79;48.13;102354.81;5015889;28;20030;-85
2023/09/24 10:26:49;;;;;;;4.07;1.50;;;;;;;22.45;50.48;102354.28;5006352;28;20037;-84
2023/09/24 10:29:50;;;;;;;3.38;1.50;;;;;;;21.36;54.40;102360.56;5032476;28;20029;-85
2023/09/24 10:32:21;;;;;;;3.50;1.52;;;;;;;20.80;56.25;102352.50;5028894;28;20045;-84
2023/09/24 10:34:55;;;;;;;3.63;1.33;;;;;;;20.42;57.07;102356.91;5032985;28;20080;-84
2023/09/24 10:37:25;;;;;;;4.97;1.52;;;;;;;20.40;59.25;102358.84;5031959;28;20025;-84
2023/09/24 10:40:00;;;;;;;3.92;1.30;;;;;;;20.35;59.25;102359.25;5031714;28;20029;-84
2023/09/24 10:42:26;;;;;;;3.63;1.58;;;;;;;20.16;56.85;102359.25;5031957;28;20102;-83
2023/09/24 10:45:07;;;;;;;2.75;1.40;;;;;;;19.91;59.00;102365.94;5029887;28;20553;-84
2023/09/24 10:47:36;;;;;;;3.55;1.70;;;;;;;19.78;57.79;102357.34;5012352;28;20046;-82
2023/09/24 10:50:06;;;;;;;5.70;1.20;;;;;;;19.71;58.54;102366.88;5013377;28;20034;-82
2023/09/24 10:52:58;;;;;;;4.82;1.50;;;;;;;19.82;60.38;102356.09;5012497;28;20409;-82
2023/09/24 10:55:27;;;;;;;3.22;1.60;;;;;;;19.58;56.61;102350.22;5025483;28;20028;-84
2023/09/24 10:57:53;;;;;;;4.00;1.20;;;;;;;19.62;58.37;102343.66;5032526;28;20030;-82
2023/09/24 11:00:20;;;;;;;3.38;1.25;;;;;;;19.76;58.72;102348.63;5031623;28;20029;-82
2023/09/24 11:03:01;;;;;;;4.47;1.60;;;;;;;20.01;60.97;102345.44;5034798;28;20542;-82
2023/09/24 11:05:33;;;;;;;4.30;1.60;;;;;;;19.99;58.64;102351.88;5013207;28;20091;-81
2023/09/24 11:07:58;;;;;;;4.32;1.33;;;;;;;20.06;60.48;102350.38;5012925;28;20022;-81
2023/09/24 11:10:25;;;;;;;2.92;1.58;;;;;;;20.18;58.66;102329.72;5028320;28;20032;-81
2023/09/24 11:12:53;;;;;;;3.60;1.67;;;;;;;20.13;56.57;102348.00;5011813;28;20018;-82
2023/09/24 11:15:20;;;;;;;3.90;1.65;;;;;;;20.11;56.84;102349.97;5011374;28;20033;-82
2023/09/24 11:17:47;;;;;;;5.00;1.80;;;;;;;20.06;56.08;102338.84;5014856;28;20026;-83
2023/09/24 11:20:20;;;;;;;4.63;1.40;;;;;;;20.17;57.00;102350.25;5017149;28;20029;-81
2023/09/24 11:22:55;;;;;;;2.90;1.30;;;;;;;20.21;59.07;102342.78;5012338;28;20037;-81